sensor_id;sensor_type;location;lat;lon;timestamp;P1;durP1;ratioP1;P2;durP2;ratioP2
51636;SDS011;37713;53.254;6.460;2023-06-10T00:01:52;14.17;;;6.13;;
51636;SDS011;37713;53.254;6.460;2023-06-10T00:04:21;12.63;;;5.55;;
51636;SDS011;37713;53.254;6.460;2023-06-10T00:06:47;12.45;;;5.85;;
51636;SDS011;37713;53.254;6.460;2023-06-10T00:09:14;13.35;;;6.03;;
51636;SDS011;37713;53.254;6.460;2023-06-10T00:11:40;12.05;;;6.03;;
51636;SDS011;37713;53.254;6.460;2023-06-10T00:14:07;13.30;;;6.30;;
51636;SDS011;37713;53.254;6.460;2023-06-10T00:16:33;10.30;;;6.07;;
51636;SDS011;37713;53.254;6.460;2023-06-10T00:19:00;14.85;;;6.88;;
51636;SDS011;37713;53.254;6.460;2023-06-10T00:21:29;10.18;;;5.75;;
51636;SDS011;37713;53.254;6.460;2023-06-10T00:24:02;15.20;;;6.40;;
51636;SDS011;37713;53.254;6.460;2023-06-10T00:26:32;15.45;;;6.30;;
51636;SDS011;37713;53.254;6.460;2023-06-10T00:28:58;15.10;;;6.65;;
51636;SDS011;37713;53.254;6.460;2023-06-10T00:31:25;11.88;;;6.43;;
51636;SDS011;37713;53.254;6.460;2023-06-10T00:33:51;12.82;;;6.75;;
51636;SDS011;37713;53.254;6.460;2023-06-10T00:36:17;12.95;;;6.22;;
51636;SDS011;37713;53.254;6.460;2023-06-10T00:38:43;12.10;;;6.25;;
51636;SDS011;37713;53.254;6.460;2023-06-10T00:41:09;13.73;;;6.53;;
51636;SDS011;37713;53.254;6.460;2023-06-10T00:43:35;12.45;;;5.90;;
51636;SDS011;37713;53.254;6.460;2023-06-10T00:46:00;10.43;;;6.22;;
51636;SDS011;37713;53.254;6.460;2023-06-10T00:48:27;10.45;;;6.00;;
51636;SDS011;37713;53.254;6.460;2023-06-10T00:50:53;11.13;;;6.30;;
51636;SDS011;37713;53.254;6.460;2023-06-10T00:53:19;20.30;;;6.47;;
51636;SDS011;37713;53.254;6.460;2023-06-10T00:55:47;12.75;;;6.75;;
51636;SDS011;37713;53.254;6.460;2023-06-10T00:58:13;12.45;;;6.25;;
51636;SDS011;37713;53.254;6.460;2023-06-10T01:00:40;13.07;;;6.40;;
51636;SDS011;37713;53.254;6.460;2023-06-10T01:03:06;12.25;;;6.57;;
51636;SDS011;37713;53.254;6.460;2023-06-10T01:05:35;13.60;;;6.40;;
51636;SDS011;37713;53.254;6.460;2023-06-10T01:10:42;11.65;;;6.65;;
51636;SDS011;37713;53.254;6.460;2023-06-10T01:13:12;13.27;;;6.10;;
51636;SDS011;37713;53.254;6.460;2023-06-10T01:15:40;11.07;;;6.50;;
51636;SDS011;37713;53.254;6.460;2023-06-10T01:18:07;12.18;;;6.75;;
51636;SDS011;37713;53.254;6.460;2023-06-10T01:20:35;13.77;;;7.18;;
51636;SDS011;37713;53.254;6.460;2023-06-10T01:23:05;11.80;;;6.57;;
51636;SDS011;37713;53.254;6.460;2023-06-10T01:25:32;14.50;;;7.43;;
51636;SDS011;37713;53.254;6.460;2023-06-10T01:33:33;12.52;;;7.28;;
51636;SDS011;37713;53.254;6.460;2023-06-10T01:36:03;14.80;;;7.32;;
51636;SDS011;37713;53.254;6.460;2023-06-10T01:38:50;14.73;;;8.00;;
51636;SDS011;37713;53.254;6.460;2023-06-10T01:41:16;13.52;;;7.80;;
51636;SDS011;37713;53.254;6.460;2023-06-10T01:43:43;14.20;;;7.18;;
51636;SDS011;37713;53.254;6.460;2023-06-10T01:46:10;15.30;;;7.75;;
51636;SDS011;37713;53.254;6.460;2023-06-10T01:48:40;13.20;;;7.80;;
51636;SDS011;37713;53.254;6.460;2023-06-10T01:51:07;16.45;;;8.00;;
51636;SDS011;37713;53.254;6.460;2023-06-10T01:53:32;12.20;;;7.65;;
51636;SDS011;37713;53.254;6.460;2023-06-10T01:55:58;12.73;;;8.18;;
51636;SDS011;37713;53.254;6.460;2023-06-10T01:58:25;13.25;;;7.65;;
51636;SDS011;37713;53.254;6.460;2023-06-10T02:00:51;12.63;;;8.25;;
51636;SDS011;37713;53.254;6.460;2023-06-10T02:03:16;13.90;;;7.82;;
51636;SDS011;37713;53.254;6.460;2023-06-10T02:05:43;12.05;;;7.78;;
51636;SDS011;37713;53.254;6.460;2023-06-10T02:08:09;13.70;;;7.90;;
51636;SDS011;37713;53.254;6.460;2023-06-10T02:10:35;12.93;;;7.38;;
51636;SDS011;37713;53.254;6.460;2023-06-10T02:13:00;14.27;;;7.72;;
51636;SDS011;37713;53.254;6.460;2023-06-10T02:15:26;14.07;;;8.18;;
51636;SDS011;37713;53.254;6.460;2023-06-10T02:17:52;15.68;;;7.97;;
51636;SDS011;37713;53.254;6.460;2023-06-10T02:20:19;12.48;;;7.40;;
51636;SDS011;37713;53.254;6.460;2023-06-10T02:22:46;15.15;;;8.18;;
51636;SDS011;37713;53.254;6.460;2023-06-10T02:25:11;11.20;;;6.75;;
51636;SDS011;37713;53.254;6.460;2023-06-10T02:27:37;14.38;;;7.63;;
51636;SDS011;37713;53.254;6.460;2023-06-10T02:30:03;12.45;;;7.82;;
51636;SDS011;37713;53.254;6.460;2023-06-10T02:32:29;13.73;;;6.90;;
51636;SDS011;37713;53.254;6.460;2023-06-10T02:34:55;13.18;;;7.43;;
51636;SDS011;37713;53.254;6.460;2023-06-10T02:37:21;11.02;;;6.57;;
51636;SDS011;37713;53.254;6.460;2023-06-10T02:39:47;12.93;;;7.10;;
51636;SDS011;37713;53.254;6.460;2023-06-10T02:42:13;13.05;;;7.10;;
51636;SDS011;37713;53.254;6.460;2023-06-10T02:44:38;12.68;;;6.72;;
51636;SDS011;37713;53.254;6.460;2023-06-10T02:47:04;12.95;;;6.70;;
51636;SDS011;37713;53.254;6.460;2023-06-10T02:49:30;13.40;;;6.88;;
51636;SDS011;37713;53.254;6.460;2023-06-10T02:51:56;12.20;;;6.22;;
51636;SDS011;37713;53.254;6.460;2023-06-10T02:54:22;10.88;;;6.40;;
51636;SDS011;37713;53.254;6.460;2023-06-10T02:56:49;10.90;;;6.38;;
51636;SDS011;37713;53.254;6.460;2023-06-10T02:59:16;13.07;;;6.80;;
51636;SDS011;37713;53.254;6.460;2023-06-10T03:01:42;13.25;;;6.47;;
51636;SDS011;37713;53.254;6.460;2023-06-10T03:04:08;15.25;;;6.82;;
51636;SDS011;37713;53.254;6.460;2023-06-10T03:06:34;15.55;;;6.63;;
51636;SDS011;37713;53.254;6.460;2023-06-10T03:09:01;14.95;;;6.72;;
51636;SDS011;37713;53.254;6.460;2023-06-10T03:11:27;12.02;;;6.13;;
51636;SDS011;37713;53.254;6.460;2023-06-10T03:13:53;11.07;;;6.03;;
51636;SDS011;37713;53.254;6.460;2023-06-10T03:16:19;12.18;;;6.60;;
51636;SDS011;37713;53.254;6.460;2023-06-10T03:18:45;13.85;;;7.10;;
51636;SDS011;37713;53.254;6.460;2023-06-10T03:21:11;14.27;;;7.05;;
51636;SDS011;37713;53.254;6.460;2023-06-10T03:23:37;12.73;;;6.05;;
51636;SDS011;37713;53.254;6.460;2023-06-10T03:26:03;11.73;;;6.22;;
51636;SDS011;37713;53.254;6.460;2023-06-10T03:28:30;15.80;;;6.38;;
51636;SDS011;37713;53.254;6.460;2023-06-10T03:30:56;12.70;;;6.50;;
51636;SDS011;37713;53.254;6.460;2023-06-10T03:33:22;15.90;;;6.40;;
51636;SDS011;37713;53.254;6.460;2023-06-10T03:35:48;13.60;;;6.43;;
51636;SDS011;37713;53.254;6.460;2023-06-10T03:38:15;14.48;;;6.82;;
51636;SDS011;37713;53.254;6.460;2023-06-10T03:40:41;14.45;;;6.57;;
51636;SDS011;37713;53.254;6.460;2023-06-10T03:43:07;11.90;;;6.93;;
51636;SDS011;37713;53.254;6.460;2023-06-10T03:45:33;12.20;;;6.68;;
51636;SDS011;37713;53.254;6.460;2023-06-10T03:47:59;15.70;;;6.95;;
51636;SDS011;37713;53.254;6.460;2023-06-10T03:50:26;16.00;;;6.40;;
51636;SDS011;37713;53.254;6.460;2023-06-10T03:52:52;12.32;;;6.63;;
51636;SDS011;37713;53.254;6.460;2023-06-10T03:55:18;10.40;;;6.55;;
51636;SDS011;37713;53.254;6.460;2023-06-10T03:57:47;14.05;;;7.05;;
51636;SDS011;37713;53.254;6.460;2023-06-10T04:00:14;13.45;;;6.70;;
51636;SDS011;37713;53.254;6.460;2023-06-10T04:02:42;13.38;;;6.45;;
51636;SDS011;37713;53.254;6.460;2023-06-10T04:05:16;12.63;;;6.55;;
51636;SDS011;37713;53.254;6.460;2023-06-10T04:07:43;10.65;;;6.05;;
51636;SDS011;37713;53.254;6.460;2023-06-10T04:10:10;12.27;;;6.15;;
51636;SDS011;37713;53.254;6.460;2023-06-10T04:12:37;13.30;;;7.35;;
51636;SDS011;37713;53.254;6.460;2023-06-10T04:15:03;14.43;;;7.35;;
51636;SDS011;37713;53.254;6.460;2023-06-10T04:17:30;13.15;;;7.18;;
51636;SDS011;37713;53.254;6.460;2023-06-10T04:19:56;16.67;;;6.75;;
51636;SDS011;37713;53.254;6.460;2023-06-10T04:22:23;13.95;;;6.80;;
51636;SDS011;37713;53.254;6.460;2023-06-10T04:24:49;14.10;;;7.38;;
51636;SDS011;37713;53.254;6.460;2023-06-10T04:27:15;14.25;;;7.47;;
51636;SDS011;37713;53.254;6.460;2023-06-10T04:29:41;14.13;;;7.38;;
51636;SDS011;37713;53.254;6.460;2023-06-10T04:32:07;14.93;;;7.82;;
51636;SDS011;37713;53.254;6.460;2023-06-10T04:34:33;14.80;;;7.75;;
51636;SDS011;37713;53.254;6.460;2023-06-10T04:36:59;17.52;;;7.50;;
51636;SDS011;37713;53.254;6.460;2023-06-10T04:39:25;16.00;;;7.35;;
51636;SDS011;37713;53.254;6.460;2023-06-10T04:41:51;14.95;;;6.72;;
51636;SDS011;37713;53.254;6.460;2023-06-10T04:44:17;11.75;;;7.15;;
51636;SDS011;37713;53.254;6.460;2023-06-10T04:46:44;14.73;;;7.53;;
51636;SDS011;37713;53.254;6.460;2023-06-10T04:49:10;17.05;;;7.40;;
51636;SDS011;37713;53.254;6.460;2023-06-10T04:51:39;12.15;;;6.60;;
51636;SDS011;37713;53.254;6.460;2023-06-10T04:54:05;13.48;;;7.38;;
51636;SDS011;37713;53.254;6.460;2023-06-10T04:56:31;16.08;;;7.47;;
51636;SDS011;37713;53.254;6.460;2023-06-10T04:58:57;15.23;;;7.18;;
51636;SDS011;37713;53.254;6.460;2023-06-10T05:01:24;14.50;;;6.93;;
51636;SDS011;37713;53.254;6.460;2023-06-10T05:03:50;14.55;;;7.85;;
51636;SDS011;37713;53.254;6.460;2023-06-10T05:06:16;14.88;;;6.78;;
51636;SDS011;37713;53.254;6.460;2023-06-10T05:08:42;18.05;;;7.28;;
51636;SDS011;37713;53.254;6.460;2023-06-10T05:11:08;17.20;;;7.60;;
51636;SDS011;37713;53.254;6.460;2023-06-10T05:13:34;13.45;;;7.60;;
51636;SDS011;37713;53.254;6.460;2023-06-10T05:16:00;14.45;;;7.22;;
51636;SDS011;37713;53.254;6.460;2023-06-10T05:18:25;16.55;;;7.55;;
51636;SDS011;37713;53.254;6.460;2023-06-10T05:20:51;16.05;;;7.20;;
51636;SDS011;37713;53.254;6.460;2023-06-10T05:23:19;14.18;;;7.32;;
51636;SDS011;37713;53.254;6.460;2023-06-10T05:25:45;14.63;;;6.85;;
51636;SDS011;37713;53.254;6.460;2023-06-10T05:28:11;15.43;;;6.90;;
51636;SDS011;37713;53.254;6.460;2023-06-10T05:30:37;17.27;;;7.05;;
51636;SDS011;37713;53.254;6.460;2023-06-10T05:33:03;14.05;;;7.43;;
51636;SDS011;37713;53.254;6.460;2023-06-10T05:35:30;14.70;;;7.85;;
51636;SDS011;37713;53.254;6.460;2023-06-10T05:37:56;14.60;;;6.97;;
51636;SDS011;37713;53.254;6.460;2023-06-10T05:40:22;16.67;;;7.15;;
51636;SDS011;37713;53.254;6.460;2023-06-10T05:42:48;16.35;;;7.57;;
51636;SDS011;37713;53.254;6.460;2023-06-10T05:45:14;15.10;;;6.97;;
51636;SDS011;37713;53.254;6.460;2023-06-10T05:47:40;11.98;;;6.55;;
51636;SDS011;37713;53.254;6.460;2023-06-10T05:50:06;13.73;;;6.93;;
51636;SDS011;37713;53.254;6.460;2023-06-10T05:52:33;16.10;;;7.25;;
51636;SDS011;37713;53.254;6.460;2023-06-10T05:55:00;14.73;;;7.07;;
51636;SDS011;37713;53.254;6.460;2023-06-10T05:57:26;12.93;;;7.32;;
51636;SDS011;37713;53.254;6.460;2023-06-10T05:59:52;14.05;;;7.68;;
51636;SDS011;37713;53.254;6.460;2023-06-10T06:02:18;14.15;;;7.20;;
51636;SDS011;37713;53.254;6.460;2023-06-10T06:04:43;16.33;;;7.15;;
51636;SDS011;37713;53.254;6.460;2023-06-10T06:07:09;13.07;;;6.32;;
51636;SDS011;37713;53.254;6.460;2023-06-10T06:09:35;13.07;;;6.95;;
51636;SDS011;37713;53.254;6.460;2023-06-10T06:12:01;13.30;;;6.93;;
51636;SDS011;37713;53.254;6.460;2023-06-10T06:14:30;19.92;;;6.93;;
51636;SDS011;37713;53.254;6.460;2023-06-10T06:16:57;16.90;;;6.90;;
51636;SDS011;37713;53.254;6.460;2023-06-10T06:19:23;12.20;;;6.68;;
51636;SDS011;37713;53.254;6.460;2023-06-10T06:21:49;16.52;;;6.70;;
51636;SDS011;37713;53.254;6.460;2023-06-10T06:24:15;14.73;;;7.15;;
51636;SDS011;37713;53.254;6.460;2023-06-10T06:26:41;15.07;;;6.88;;
51636;SDS011;37713;53.254;6.460;2023-06-10T06:29:07;11.95;;;6.53;;
51636;SDS011;37713;53.254;6.460;2023-06-10T06:31:33;18.27;;;6.22;;
51636;SDS011;37713;53.254;6.460;2023-06-10T06:33:59;14.45;;;6.55;;
51636;SDS011;37713;53.254;6.460;2023-06-10T06:36:25;13.48;;;5.85;;
51636;SDS011;37713;53.254;6.460;2023-06-10T06:38:50;11.43;;;5.53;;
51636;SDS011;37713;53.254;6.460;2023-06-10T06:41:17;12.60;;;6.03;;
51636;SDS011;37713;53.254;6.460;2023-06-10T06:43:42;12.30;;;5.93;;
51636;SDS011;37713;53.254;6.460;2023-06-10T06:46:08;11.88;;;5.45;;
51636;SDS011;37713;53.254;6.460;2023-06-10T06:48:34;9.65;;;5.22;;
51636;SDS011;37713;53.254;6.460;2023-06-10T06:51:00;11.85;;;5.82;;
51636;SDS011;37713;53.254;6.460;2023-06-10T06:53:26;9.77;;;5.35;;
51636;SDS011;37713;53.254;6.460;2023-06-10T06:55:52;10.27;;;5.50;;
51636;SDS011;37713;53.254;6.460;2023-06-10T06:58:17;11.77;;;5.47;;
51636;SDS011;37713;53.254;6.460;2023-06-10T07:00:43;12.95;;;5.38;;
51636;SDS011;37713;53.254;6.460;2023-06-10T07:03:09;11.13;;;5.70;;
51636;SDS011;37713;53.254;6.460;2023-06-10T07:05:35;10.05;;;5.18;;
51636;SDS011;37713;53.254;6.460;2023-06-10T07:08:00;10.70;;;5.57;;
51636;SDS011;37713;53.254;6.460;2023-06-10T07:10:26;10.50;;;5.18;;
51636;SDS011;37713;53.254;6.460;2023-06-10T07:12:53;8.95;;;4.97;;
51636;SDS011;37713;53.254;6.460;2023-06-10T07:15:19;10.15;;;5.40;;
51636;SDS011;37713;53.254;6.460;2023-06-10T07:17:45;9.65;;;5.22;;
51636;SDS011;37713;53.254;6.460;2023-06-10T07:20:10;10.23;;;5.22;;
51636;SDS011;37713;53.254;6.460;2023-06-10T07:22:37;8.65;;;4.80;;
51636;SDS011;37713;53.254;6.460;2023-06-10T07:25:04;12.80;;;5.32;;
51636;SDS011;37713;53.254;6.460;2023-06-10T07:27:30;12.95;;;5.03;;
51636;SDS011;37713;53.254;6.460;2023-06-10T07:29:56;9.48;;;5.63;;
51636;SDS011;37713;53.254;6.460;2023-06-10T07:32:22;13.23;;;5.63;;
51636;SDS011;37713;53.254;6.460;2023-06-10T07:34:49;10.07;;;4.70;;
51636;SDS011;37713;53.254;6.460;2023-06-10T07:37:16;12.07;;;5.05;;
51636;SDS011;37713;53.254;6.460;2023-06-10T07:39:41;9.40;;;4.90;;
51636;SDS011;37713;53.254;6.460;2023-06-10T07:42:08;11.88;;;5.10;;
51636;SDS011;37713;53.254;6.460;2023-06-10T07:44:35;8.57;;;4.43;;
51636;SDS011;37713;53.254;6.460;2023-06-10T07:47:00;10.02;;;5.63;;
51636;SDS011;37713;53.254;6.460;2023-06-10T07:49:26;9.95;;;4.85;;
51636;SDS011;37713;53.254;6.460;2023-06-10T07:51:53;11.90;;;5.63;;
51636;SDS011;37713;53.254;6.460;2023-06-10T07:54:20;10.27;;;5.05;;
51636;SDS011;37713;53.254;6.460;2023-06-10T07:56:46;11.18;;;5.10;;
51636;SDS011;37713;53.254;6.460;2023-06-10T07:59:13;9.57;;;4.80;;
51636;SDS011;37713;53.254;6.460;2023-06-10T08:01:39;10.10;;;4.85;;
51636;SDS011;37713;53.254;6.460;2023-06-10T08:04:05;9.90;;;5.40;;
51636;SDS011;37713;53.254;6.460;2023-06-10T08:06:31;10.85;;;4.70;;
51636;SDS011;37713;53.254;6.460;2023-06-10T08:08:57;10.30;;;4.78;;
51636;SDS011;37713;53.254;6.460;2023-06-10T08:11:25;10.40;;;4.50;;
51636;SDS011;37713;53.254;6.460;2023-06-10T08:13:53;10.15;;;4.88;;
51636;SDS011;37713;53.254;6.460;2023-06-10T08:16:19;9.10;;;4.68;;
51636;SDS011;37713;53.254;6.460;2023-06-10T08:18:45;10.98;;;4.28;;
51636;SDS011;37713;53.254;6.460;2023-06-10T08:21:11;10.18;;;4.25;;
51636;SDS011;37713;53.254;6.460;2023-06-10T08:23:36;8.10;;;4.63;;
51636;SDS011;37713;53.254;6.460;2023-06-10T08:26:02;10.73;;;4.70;;
51636;SDS011;37713;53.254;6.460;2023-06-10T08:28:28;10.70;;;4.63;;
51636;SDS011;37713;53.254;6.460;2023-06-10T08:30:54;8.32;;;4.50;;
51636;SDS011;37713;53.254;6.460;2023-06-10T08:33:19;10.65;;;4.78;;
51636;SDS011;37713;53.254;6.460;2023-06-10T08:35:45;10.10;;;4.50;;
51636;SDS011;37713;53.254;6.460;2023-06-10T08:38:11;11.02;;;4.97;;
51636;SDS011;37713;53.254;6.460;2023-06-10T08:40:37;12.32;;;5.18;;
51636;SDS011;37713;53.254;6.460;2023-06-10T08:43:06;8.68;;;4.35;;
51636;SDS011;37713;53.254;6.460;2023-06-10T08:45:36;10.20;;;4.53;;
51636;SDS011;37713;53.254;6.460;2023-06-10T08:48:03;15.73;;;4.40;;
51636;SDS011;37713;53.254;6.460;2023-06-10T08:50:34;9.00;;;4.68;;
51636;SDS011;37713;53.254;6.460;2023-06-10T08:53:04;9.98;;;4.28;;
51636;SDS011;37713;53.254;6.460;2023-06-10T08:55:33;8.60;;;4.10;;
51636;SDS011;37713;53.254;6.460;2023-06-10T08:58:07;12.95;;;5.55;;
51636;SDS011;37713;53.254;6.460;2023-06-10T09:00:33;10.93;;;6.20;;
51636;SDS011;37713;53.254;6.460;2023-06-10T09:03:00;8.55;;;4.43;;
51636;SDS011;37713;53.254;6.460;2023-06-10T09:05:28;10.52;;;4.53;;
51636;SDS011;37713;53.254;6.460;2023-06-10T09:07:54;9.05;;;4.10;;
51636;SDS011;37713;53.254;6.460;2023-06-10T09:10:22;9.85;;;4.22;;
51636;SDS011;37713;53.254;6.460;2023-06-10T09:12:48;9.55;;;4.07;;
51636;SDS011;37713;53.254;6.460;2023-06-10T09:15:14;9.77;;;4.38;;
51636;SDS011;37713;53.254;6.460;2023-06-10T09:17:42;7.10;;;3.75;;
51636;SDS011;37713;53.254;6.460;2023-06-10T09:20:08;8.98;;;4.05;;
51636;SDS011;37713;53.254;6.460;2023-06-10T09:22:34;12.13;;;4.05;;
51636;SDS011;37713;53.254;6.460;2023-06-10T09:25:09;11.07;;;4.60;;
51636;SDS011;37713;53.254;6.460;2023-06-10T09:27:51;10.60;;;4.80;;
51636;SDS011;37713;53.254;6.460;2023-06-10T09:30:30;10.98;;;4.75;;
51636;SDS011;37713;53.254;6.460;2023-06-10T09:33:00;10.73;;;4.28;;
51636;SDS011;37713;53.254;6.460;2023-06-10T09:35:28;11.55;;;4.60;;
51636;SDS011;37713;53.254;6.460;2023-06-10T09:37:55;10.18;;;4.68;;
51636;SDS011;37713;53.254;6.460;2023-06-10T09:40:22;11.20;;;4.72;;
51636;SDS011;37713;53.254;6.460;2023-06-10T09:42:55;9.52;;;4.60;;
51636;SDS011;37713;53.254;6.460;2023-06-10T09:45:27;13.45;;;4.72;;
51636;SDS011;37713;53.254;6.460;2023-06-10T09:47:58;10.35;;;4.40;;
51636;SDS011;37713;53.254;6.460;2023-06-10T09:50:25;9.70;;;4.20;;
51636;SDS011;37713;53.254;6.460;2023-06-10T09:52:51;10.07;;;4.18;;
51636;SDS011;37713;53.254;6.460;2023-06-10T09:55:17;10.13;;;4.65;;
51636;SDS011;37713;53.254;6.460;2023-06-10T09:57:43;13.25;;;4.75;;
51636;SDS011;37713;53.254;6.460;2023-06-10T10:02:52;11.73;;;5.00;;
51636;SDS011;37713;53.254;6.460;2023-06-10T10:05:19;10.30;;;4.50;;
51636;SDS011;37713;53.254;6.460;2023-06-10T10:07:49;11.27;;;5.60;;
51636;SDS011;37713;53.254;6.460;2023-06-10T10:10:16;11.55;;;5.15;;
51636;SDS011;37713;53.254;6.460;2023-06-10T10:12:43;11.57;;;5.03;;
51636;SDS011;37713;53.254;6.460;2023-06-10T10:17:49;10.68;;;4.70;;
51636;SDS011;37713;53.254;6.460;2023-06-10T10:20:33;12.02;;;4.80;;
51636;SDS011;37713;53.254;6.460;2023-06-10T10:23:02;8.27;;;4.50;;
51636;SDS011;37713;53.254;6.460;2023-06-10T10:25:31;10.98;;;4.60;;
51636;SDS011;37713;53.254;6.460;2023-06-10T10:33:12;12.25;;;5.55;;
51636;SDS011;37713;53.254;6.460;2023-06-10T10:35:42;9.68;;;4.68;;
51636;SDS011;37713;53.254;6.460;2023-06-10T10:38:09;12.15;;;5.18;;
51636;SDS011;37713;53.254;6.460;2023-06-10T10:40:35;15.10;;;4.80;;
51636;SDS011;37713;53.254;6.460;2023-06-10T10:43:02;8.60;;;4.55;;
51636;SDS011;37713;53.254;6.460;2023-06-10T10:45:28;8.68;;;3.90;;
51636;SDS011;37713;53.254;6.460;2023-06-10T10:47:54;9.63;;;4.45;;
51636;SDS011;37713;53.254;6.460;2023-06-10T10:50:21;9.40;;;4.18;;
51636;SDS011;37713;53.254;6.460;2023-06-10T10:52:54;10.25;;;4.30;;
51636;SDS011;37713;53.254;6.460;2023-06-10T10:55:27;9.05;;;4.10;;
51636;SDS011;37713;53.254;6.460;2023-06-10T10:58:03;8.40;;;4.43;;
51636;SDS011;37713;53.254;6.460;2023-06-10T11:00:38;8.27;;;4.18;;
51636;SDS011;37713;53.254;6.460;2023-06-10T11:03:12;8.73;;;4.15;;
51636;SDS011;37713;53.254;6.460;2023-06-10T11:05:43;10.00;;;4.13;;
51636;SDS011;37713;53.254;6.460;2023-06-10T11:08:13;7.30;;;4.00;;
51636;SDS011;37713;53.254;6.460;2023-06-10T11:10:40;6.82;;;3.67;;
51636;SDS011;37713;53.254;6.460;2023-06-10T11:13:15;7.70;;;4.10;;
51636;SDS011;37713;53.254;6.460;2023-06-10T11:15:44;9.13;;;4.20;;
51636;SDS011;37713;53.254;6.460;2023-06-10T11:18:24;7.40;;;3.83;;
51636;SDS011;37713;53.254;6.460;2023-06-10T11:20:52;9.45;;;4.40;;
51636;SDS011;37713;53.254;6.460;2023-06-10T11:39:00;10.40;;;4.07;;
51636;SDS011;37713;53.254;6.460;2023-06-10T11:41:31;8.02;;;3.75;;
51636;SDS011;37713;53.254;6.460;2023-06-10T11:44:02;9.50;;;4.18;;
51636;SDS011;37713;53.254;6.460;2023-06-10T11:46:35;7.95;;;4.07;;
51636;SDS011;37713;53.254;6.460;2023-06-10T11:49:01;8.88;;;3.90;;
51636;SDS011;37713;53.254;6.460;2023-06-10T11:51:29;8.48;;;4.60;;
51636;SDS011;37713;53.254;6.460;2023-06-10T11:53:57;8.23;;;4.30;;
51636;SDS011;37713;53.254;6.460;2023-06-10T11:56:27;10.88;;;4.47;;
51636;SDS011;37713;53.254;6.460;2023-06-10T11:58:55;8.35;;;4.22;;
51636;SDS011;37713;53.254;6.460;2023-06-10T12:01:36;7.87;;;3.80;;
51636;SDS011;37713;53.254;6.460;2023-06-10T12:04:08;12.48;;;4.22;;
51636;SDS011;37713;53.254;6.460;2023-06-10T12:06:42;7.50;;;4.03;;
51636;SDS011;37713;53.254;6.460;2023-06-10T12:09:33;8.45;;;3.90;;
51636;SDS011;37713;53.254;6.460;2023-06-10T12:12:02;8.68;;;3.83;;
51636;SDS011;37713;53.254;6.460;2023-06-10T12:17:19;10.57;;;3.83;;
51636;SDS011;37713;53.254;6.460;2023-06-10T12:19:47;12.90;;;5.70;;
51636;SDS011;37713;53.254;6.460;2023-06-10T12:22:13;9.63;;;4.20;;
51636;SDS011;37713;53.254;6.460;2023-06-10T12:24:43;9.40;;;3.95;;
51636;SDS011;37713;53.254;6.460;2023-06-10T12:27:13;7.57;;;3.70;;
51636;SDS011;37713;53.254;6.460;2023-06-10T12:29:39;7.97;;;3.58;;
51636;SDS011;37713;53.254;6.460;2023-06-10T12:32:15;10.82;;;3.95;;
51636;SDS011;37713;53.254;6.460;2023-06-10T12:34:41;9.93;;;4.80;;
51636;SDS011;37713;53.254;6.460;2023-06-10T12:37:10;10.35;;;4.50;;
51636;SDS011;37713;53.254;6.460;2023-06-10T12:39:40;12.40;;;4.70;;
51636;SDS011;37713;53.254;6.460;2023-06-10T12:42:12;9.73;;;4.60;;
51636;SDS011;37713;53.254;6.460;2023-06-10T12:44:41;9.85;;;4.53;;
51636;SDS011;37713;53.254;6.460;2023-06-10T12:47:07;8.10;;;4.30;;
51636;SDS011;37713;53.254;6.460;2023-06-10T12:49:35;10.05;;;4.75;;
51636;SDS011;37713;53.254;6.460;2023-06-10T12:52:01;9.68;;;4.15;;
51636;SDS011;37713;53.254;6.460;2023-06-10T12:54:27;10.88;;;4.95;;
51636;SDS011;37713;53.254;6.460;2023-06-10T12:56:52;11.25;;;4.45;;
51636;SDS011;37713;53.254;6.460;2023-06-10T12:59:18;10.27;;;4.30;;
51636;SDS011;37713;53.254;6.460;2023-06-10T13:01:44;9.30;;;4.10;;
51636;SDS011;37713;53.254;6.460;2023-06-10T13:04:16;8.65;;;4.10;;
51636;SDS011;37713;53.254;6.460;2023-06-10T13:06:43;11.25;;;4.57;;
51636;SDS011;37713;53.254;6.460;2023-06-10T13:09:09;10.65;;;4.68;;
51636;SDS011;37713;53.254;6.460;2023-06-10T13:11:35;11.30;;;5.10;;
51636;SDS011;37713;53.254;6.460;2023-06-10T13:14:02;8.70;;;4.40;;
51636;SDS011;37713;53.254;6.460;2023-06-10T13:16:29;9.25;;;4.18;;
51636;SDS011;37713;53.254;6.460;2023-06-10T13:18:58;10.02;;;4.55;;
51636;SDS011;37713;53.254;6.460;2023-06-10T13:21:27;11.55;;;4.65;;
51636;SDS011;37713;53.254;6.460;2023-06-10T13:23:53;9.70;;;4.13;;
51636;SDS011;37713;53.254;6.460;2023-06-10T13:26:19;8.95;;;3.55;;
51636;SDS011;37713;53.254;6.460;2023-06-10T13:28:45;9.05;;;4.28;;
51636;SDS011;37713;53.254;6.460;2023-06-10T13:31:11;13.73;;;4.22;;
51636;SDS011;37713;53.254;6.460;2023-06-10T13:33:37;10.70;;;4.47;;
51636;SDS011;37713;53.254;6.460;2023-06-10T13:36:03;9.02;;;3.95;;
51636;SDS011;37713;53.254;6.460;2023-06-10T13:38:29;10.43;;;4.10;;
51636;SDS011;37713;53.254;6.460;2023-06-10T13:40:55;8.82;;;4.10;;
51636;SDS011;37713;53.254;6.460;2023-06-10T13:43:21;10.65;;;4.03;;
51636;SDS011;37713;53.254;6.460;2023-06-10T13:45:47;9.30;;;4.20;;
51636;SDS011;37713;53.254;6.460;2023-06-10T13:48:12;9.57;;;4.25;;
51636;SDS011;37713;53.254;6.460;2023-06-10T13:50:38;6.75;;;3.80;;
51636;SDS011;37713;53.254;6.460;2023-06-10T13:53:04;8.38;;;3.90;;
51636;SDS011;37713;53.254;6.460;2023-06-10T13:55:30;7.68;;;4.18;;
51636;SDS011;37713;53.254;6.460;2023-06-10T13:57:55;8.52;;;3.80;;
51636;SDS011;37713;53.254;6.460;2023-06-10T14:00:21;9.93;;;4.00;;
51636;SDS011;37713;53.254;6.460;2023-06-10T14:02:47;9.30;;;3.90;;
51636;SDS011;37713;53.254;6.460;2023-06-10T14:05:12;10.32;;;4.00;;
51636;SDS011;37713;53.254;6.460;2023-06-10T14:07:38;9.50;;;4.10;;
51636;SDS011;37713;53.254;6.460;2023-06-10T14:10:05;9.55;;;3.97;;
51636;SDS011;37713;53.254;6.460;2023-06-10T14:12:33;7.22;;;4.05;;
51636;SDS011;37713;53.254;6.460;2023-06-10T14:15:00;8.57;;;3.70;;
51636;SDS011;37713;53.254;6.460;2023-06-10T14:17:26;9.70;;;3.50;;
51636;SDS011;37713;53.254;6.460;2023-06-10T14:19:51;10.23;;;4.30;;
51636;SDS011;37713;53.254;6.460;2023-06-10T14:22:17;11.20;;;4.38;;
51636;SDS011;37713;53.254;6.460;2023-06-10T14:24:43;10.93;;;4.25;;
51636;SDS011;37713;53.254;6.460;2023-06-10T14:27:12;8.55;;;3.70;;
51636;SDS011;37713;53.254;6.460;2023-06-10T14:29:38;10.40;;;4.00;;
51636;SDS011;37713;53.254;6.460;2023-06-10T14:32:06;9.82;;;3.85;;
51636;SDS011;37713;53.254;6.460;2023-06-10T14:34:32;10.13;;;3.88;;
51636;SDS011;37713;53.254;6.460;2023-06-10T14:37:01;11.73;;;3.97;;
51636;SDS011;37713;53.254;6.460;2023-06-10T14:39:32;9.90;;;3.63;;
51636;SDS011;37713;53.254;6.460;2023-06-10T14:41:58;10.00;;;3.90;;
51636;SDS011;37713;53.254;6.460;2023-06-10T14:44:24;10.25;;;3.63;;
51636;SDS011;37713;53.254;6.460;2023-06-10T14:46:50;7.93;;;3.30;;
51636;SDS011;37713;53.254;6.460;2023-06-10T14:49:16;8.18;;;3.33;;
51636;SDS011;37713;53.254;6.460;2023-06-10T14:51:41;5.80;;;3.05;;
51636;SDS011;37713;53.254;6.460;2023-06-10T14:54:07;8.68;;;3.50;;
51636;SDS011;37713;53.254;6.460;2023-06-10T14:56:33;9.48;;;4.03;;
51636;SDS011;37713;53.254;6.460;2023-06-10T14:58:59;6.93;;;3.25;;
51636;SDS011;37713;53.254;6.460;2023-06-10T15:01:25;10.35;;;3.20;;
51636;SDS011;37713;53.254;6.460;2023-06-10T15:03:50;9.07;;;4.03;;
51636;SDS011;37713;53.254;6.460;2023-06-10T15:06:16;10.38;;;3.20;;
51636;SDS011;37713;53.254;6.460;2023-06-10T15:08:46;8.35;;;3.70;;
51636;SDS011;37713;53.254;6.460;2023-06-10T15:11:13;8.20;;;2.97;;
51636;SDS011;37713;53.254;6.460;2023-06-10T15:13:40;8.98;;;3.10;;
51636;SDS011;37713;53.254;6.460;2023-06-10T15:16:06;9.30;;;3.60;;